createdAt,value
2018-02-15T00:02:19.165Z,10.80
2018-02-15T00:04:46.630Z,10.87
2018-02-15T00:07:14.177Z,10.73
2018-02-15T00:09:41.662Z,10.73
2018-02-15T00:12:09.312Z,10.37
2018-02-15T00:14:36.870Z,12.07
2018-02-15T00:17:04.538Z,10.87
2018-02-15T00:19:32.782Z,10.73
2018-02-15T00:22:00.257Z,11.30
2018-02-15T00:24:27.729Z,11.60
2018-02-15T00:26:55.957Z,11.97
2018-02-15T00:29:23.428Z,10.70
2018-02-15T00:31:50.954Z,11.30
2018-02-15T00:34:18.570Z,12.50
2018-02-15T00:36:46.026Z,10.40
2018-02-15T00:39:13.510Z,11.30
2018-02-15T00:41:41.740Z,11.60
2018-02-15T00:44:09.217Z,10.97
2018-02-15T00:46:36.677Z,10.30
2018-02-15T00:49:05.131Z,11.40
2018-02-15T00:51:32.721Z,11.27
2018-02-15T00:54:00.978Z,10.57
2018-02-15T00:56:29.212Z,9.60
2018-02-15T00:58:56.674Z,11.00
2018-02-15T01:01:24.145Z,9.80
2018-02-15T01:03:51.609Z,9.73
2018-02-15T01:06:19.125Z,10.23
2018-02-15T01:08:46.604Z,10.93
2018-02-15T01:11:14.083Z,9.70
2018-02-15T01:13:41.553Z,10.60
2018-02-15T01:16:09.020Z,9.70
2018-02-15T01:18:36.489Z,10.70
2018-02-15T01:21:04.743Z,10.40
2018-02-15T01:23:32.323Z,9.40
2018-02-15T01:25:59.791Z,10.97
2018-02-15T01:28:28.691Z,8.97
2018-02-15T01:30:56.908Z,10.30
2018-02-15T01:33:24.380Z,8.97
2018-02-15T01:35:51.842Z,9.27
2018-02-15T01:38:19.316Z,9.97
2018-02-15T01:40:47.541Z,8.27
2018-02-15T01:43:15.012Z,9.33
2018-02-15T01:45:42.486Z,10.13
2018-02-15T01:48:09.960Z,8.83
2018-02-15T01:50:38.256Z,9.70
2018-02-15T01:53:05.732Z,8.77
2018-02-15T01:55:33.192Z,8.80
2018-02-15T01:58:00.725Z,9.97
2018-02-15T02:00:28.185Z,8.70
2018-02-15T02:02:55.810Z,8.80
2018-02-15T02:05:23.363Z,9.87
2018-02-15T02:07:50.845Z,9.00
2018-02-15T02:10:19.082Z,9.67
2018-02-15T02:12:46.550Z,8.70
2018-02-15T02:15:14.789Z,8.97
2018-02-15T02:17:42.270Z,9.60
2018-02-15T02:20:09.746Z,8.90
2018-02-15T02:22:37.216Z,9.03
2018-02-15T02:25:04.684Z,8.83
2018-02-15T02:27:32.918Z,10.37
2018-02-15T02:30:00.527Z,9.63
2018-02-15T02:32:28.810Z,9.87
2018-02-15T02:34:56.287Z,9.53
2018-02-15T02:37:23.741Z,8.90
2018-02-15T02:39:51.221Z,8.90
2018-02-15T02:42:18.785Z,8.70
2018-02-15T02:44:46.271Z,9.17
2018-02-15T02:47:14.558Z,9.20
2018-02-15T02:49:42.838Z,10.10
2018-02-15T02:52:11.053Z,9.10
2018-02-15T02:54:38.516Z,9.23
2018-02-15T02:57:05.992Z,9.30
2018-02-15T02:59:33.467Z,10.07
2018-02-15T03:02:00.934Z,9.27
2018-02-15T03:04:29.170Z,9.70
2018-02-15T03:06:56.652Z,9.40
2018-02-15T03:09:24.216Z,9.50
2018-02-15T03:11:51.688Z,10.63
2018-02-15T03:14:19.909Z,9.73
2018-02-15T03:16:47.366Z,10.57
2018-02-15T03:19:14.845Z,10.10
2018-02-15T03:21:42.381Z,10.00
2018-02-15T03:24:09.853Z,11.10
2018-02-15T03:26:37.327Z,10.60
2018-02-15T03:29:04.836Z,9.83
2018-02-15T03:31:32.317Z,10.70
2018-02-15T03:33:59.793Z,11.03
2018-02-15T03:36:27.272Z,10.67
2018-02-15T03:38:55.735Z,11.57
2018-02-15T03:41:23.293Z,11.10
2018-02-15T03:43:50.826Z,12.73
2018-02-15T03:46:18.313Z,11.53
2018-02-15T03:48:46.577Z,12.23
2018-02-15T03:51:15.546Z,11.97
2018-02-15T03:53:43.028Z,13.07
2018-02-15T03:56:10.508Z,12.17
2018-02-15T03:58:38.020Z,12.53
2018-02-15T04:01:05.500Z,12.60
2018-02-15T04:03:32.989Z,13.27
2018-02-15T04:06:01.220Z,12.40
2018-02-15T04:08:28.692Z,12.40
2018-02-15T04:10:56.164Z,13.47
2018-02-15T04:13:24.401Z,13.80
2018-02-15T04:15:51.952Z,12.97
2018-02-15T04:18:19.439Z,13.60
2018-02-15T04:20:46.916Z,13.80
2018-02-15T04:23:15.140Z,15.03
2018-02-15T04:25:42.733Z,14.67
2018-02-15T04:28:10.273Z,15.60
2018-02-15T04:30:37.752Z,14.93
2018-02-15T04:33:05.221Z,17.67
2018-02-15T04:35:33.466Z,18.70
2018-02-15T04:38:00.943Z,17.73
2018-02-15T04:40:28.421Z,20.97
2018-02-15T04:42:56.678Z,19.50
2018-02-15T04:45:24.148Z,19.97
2018-02-15T04:47:52.391Z,20.57
2018-02-15T04:50:19.868Z,22.73
2018-02-15T04:52:47.354Z,22.47
2018-02-15T04:55:14.885Z,24.60
2018-02-15T04:57:42.406Z,25.90
2018-02-15T05:00:10.085Z,24.53
2018-02-15T05:02:37.610Z,24.63
2018-02-15T05:05:05.217Z,23.30
2018-02-15T05:07:34.198Z,24.67
2018-02-15T05:10:01.671Z,22.77
2018-02-15T05:12:29.144Z,26.47
2018-02-15T05:14:57.380Z,26.43
2018-02-15T05:17:24.849Z,22.67
2018-02-15T05:19:52.310Z,23.67
2018-02-15T05:22:19.850Z,25.00
2018-02-15T05:24:47.312Z,23.07
2018-02-15T05:27:14.772Z,23.50
2018-02-15T05:29:42.256Z,25.60
2018-02-15T05:32:09.704Z,24.93
2018-02-15T05:34:37.948Z,26.23
2018-02-15T05:37:05.413Z,26.57
2018-02-15T05:39:32.887Z,26.20
2018-02-15T05:42:00.356Z,24.90
2018-02-15T05:44:28.653Z,26.03
2018-02-15T05:46:56.881Z,27.90
2018-02-15T05:49:25.134Z,26.70
2018-02-15T05:51:52.608Z,26.90
2018-02-15T05:54:20.084Z,26.00
2018-02-15T05:56:49.089Z,27.87
2018-02-15T05:59:16.561Z,26.87
2018-02-15T06:01:44.797Z,25.50
2018-02-15T06:04:12.276Z,25.87
2018-02-15T06:06:39.790Z,24.83
2018-02-15T06:09:07.544Z,24.07
2018-02-15T06:11:35.162Z,26.70
2018-02-15T06:14:03.437Z,25.07
2018-02-15T06:16:31.817Z,25.60
2018-02-15T06:19:00.045Z,22.77
2018-02-15T06:21:27.531Z,24.80
2018-02-15T06:23:54.998Z,24.63
2018-02-15T06:26:23.253Z,24.37
2018-02-15T06:28:50.821Z,21.70
2018-02-15T06:31:18.385Z,22.10
2018-02-15T06:33:45.840Z,22.53
2018-02-15T06:36:13.393Z,22.07
2018-02-15T06:38:40.849Z,21.37
2018-02-15T06:41:08.326Z,21.37
2018-02-15T06:43:36.649Z,22.50
2018-02-15T06:46:04.138Z,21.50
2018-02-15T06:48:31.621Z,20.80
2018-02-15T06:50:59.861Z,21.97
2018-02-15T06:53:27.349Z,22.47
2018-02-15T06:55:55.593Z,21.40
2018-02-15T06:58:23.169Z,20.83
2018-02-15T07:00:50.649Z,20.87
2018-02-15T07:03:18.892Z,20.53
2018-02-15T07:05:46.361Z,21.67
2018-02-15T07:08:13.831Z,20.47
2018-02-15T07:10:42.065Z,21.30
2018-02-15T07:13:09.611Z,21.17
2018-02-15T07:15:37.145Z,20.97
2018-02-15T07:18:04.620Z,22.37
2018-02-15T07:20:32.084Z,19.80
2018-02-15T07:22:59.565Z,20.37
2018-02-15T07:25:27.107Z,19.80
2018-02-15T07:27:54.569Z,20.43
2018-02-15T07:30:22.070Z,18.00
2018-02-15T07:32:50.405Z,20.20
2018-02-15T07:35:17.906Z,17.97
2018-02-15T07:37:46.136Z,17.00
2018-02-15T07:40:13.805Z,18.30
2018-02-15T07:42:41.427Z,17.37
2018-02-15T07:45:08.897Z,16.20
2018-02-15T07:47:36.373Z,17.83
2018-02-15T07:50:03.861Z,15.87
2018-02-15T07:52:31.323Z,16.40
2018-02-15T07:55:02.037Z,17.10
2018-02-15T07:57:29.507Z,16.57
2018-02-15T07:59:56.977Z,15.57
2018-02-15T08:02:25.412Z,15.83
2018-02-15T08:04:53.657Z,16.70
2018-02-15T08:07:21.107Z,15.73
2018-02-15T08:09:48.578Z,15.73
2018-02-15T08:12:16.066Z,15.47
2018-02-15T08:14:43.563Z,14.90
2018-02-15T08:17:11.811Z,14.90
2018-02-15T08:19:39.285Z,16.07
2018-02-15T08:22:06.765Z,16.10
2018-02-15T08:24:34.226Z,16.83
2018-02-15T08:27:01.723Z,15.07
2018-02-15T08:29:29.187Z,16.27
2018-02-15T08:31:56.666Z,16.43
2018-02-15T08:34:24.133Z,15.80
2018-02-15T08:36:52.572Z,14.47
2018-02-15T08:39:20.249Z,15.23
2018-02-15T08:41:47.753Z,15.40
2018-02-15T08:44:15.335Z,16.23
2018-02-15T08:46:42.883Z,15.53
2018-02-15T08:49:11.843Z,16.37
2018-02-15T08:51:40.082Z,15.23
2018-02-15T08:54:07.563Z,16.00
2018-02-15T08:56:35.070Z,16.43
2018-02-15T08:59:02.539Z,17.47
2018-02-15T09:01:30.014Z,15.77
2018-02-15T09:03:57.483Z,16.87
2018-02-15T09:06:24.952Z,16.20
2018-02-15T09:08:52.425Z,16.87
2018-02-15T09:11:20.677Z,16.10
2018-02-15T09:13:48.157Z,15.90
2018-02-15T09:16:16.398Z,16.77
2018-02-15T09:18:43.892Z,15.67
2018-02-15T09:21:12.125Z,17.33
2018-02-15T09:23:39.627Z,15.73
2018-02-15T09:26:07.856Z,17.17
2018-02-15T09:28:35.330Z,16.43
2018-02-15T09:31:02.816Z,15.83
2018-02-15T09:33:31.165Z,17.67
2018-02-15T09:35:58.661Z,18.10
2018-02-15T09:38:26.128Z,18.17
2018-02-15T09:40:53.690Z,18.50
2018-02-15T09:43:21.156Z,18.60
2018-02-15T09:45:48.715Z,19.00
2018-02-15T09:48:16.187Z,17.07
2018-02-15T09:50:43.661Z,18.23
2018-02-15T09:53:11.336Z,16.93
2018-02-15T09:55:38.844Z,17.60
2018-02-15T09:58:06.335Z,18.70
2018-02-15T10:00:33.817Z,17.40
2018-02-15T10:03:02.192Z,19.63
2018-02-15T10:05:29.848Z,18.97
2018-02-15T10:07:57.313Z,19.57
2018-02-15T10:10:25.623Z,18.63
2018-02-15T10:12:53.848Z,19.10
2018-02-15T10:15:23.045Z,19.40
2018-02-15T10:17:50.553Z,20.40
2018-02-15T10:20:18.031Z,19.03
2018-02-15T10:22:45.528Z,20.73
2018-02-15T10:25:13.033Z,21.30
2018-02-15T10:27:41.129Z,20.70
2018-02-15T10:30:08.624Z,21.60
2018-02-15T10:32:36.858Z,20.63
2018-02-15T10:35:04.913Z,20.63
2018-02-15T10:37:32.386Z,21.83
2018-02-15T10:39:59.924Z,21.67
2018-02-15T10:42:28.129Z,21.70
2018-02-15T10:44:55.629Z,22.20
2018-02-15T10:47:23.086Z,20.20
2018-02-15T10:49:51.332Z,20.90
2018-02-15T10:52:19.265Z,20.27
2018-02-15T10:54:46.759Z,21.90
2018-02-15T10:57:14.240Z,23.03
2018-02-15T10:59:42.578Z,22.33
2018-02-15T11:02:15.790Z,23.20
2018-02-15T11:04:49.778Z,22.80
2018-02-15T11:07:17.249Z,24.83
2018-02-15T11:09:44.732Z,23.70
2018-02-15T11:12:12.956Z,23.60
2018-02-15T11:14:40.937Z,20.40
2018-02-15T11:17:08.665Z,22.23
2018-02-15T11:19:36.143Z,22.30
2018-02-15T11:22:03.605Z,21.27
2018-02-15T11:24:31.197Z,20.47
2018-02-15T11:26:58.660Z,21.60
2018-02-15T11:29:26.897Z,21.00
2018-02-15T11:31:54.390Z,22.37
2018-02-15T11:34:21.885Z,20.27
2018-02-15T11:36:50.119Z,22.00
2018-02-15T11:39:17.633Z,19.00
2018-02-15T11:41:45.113Z,20.33
2018-02-15T11:44:12.601Z,21.63
2018-02-15T11:46:40.850Z,22.07
2018-02-15T11:49:08.487Z,21.90
2018-02-15T11:51:35.970Z,20.63
2018-02-15T11:54:03.574Z,21.10
2018-02-15T11:56:31.084Z,21.60
2018-02-15T11:58:58.533Z,21.17
2018-02-15T12:01:26.569Z,20.43
2018-02-15T12:03:54.077Z,19.70
2018-02-15T12:06:21.549Z,20.20
2018-02-15T12:08:49.781Z,19.47
2018-02-15T12:11:17.358Z,20.07
2018-02-15T12:13:44.823Z,21.17
2018-02-15T12:16:12.281Z,20.77
2018-02-15T12:18:39.755Z,19.03
2018-02-15T12:21:07.988Z,19.07
2018-02-15T12:23:35.474Z,19.37
2018-02-15T12:26:04.565Z,18.67
2018-02-15T12:28:32.770Z,20.80
2018-02-15T12:31:01.020Z,19.60
2018-02-15T12:33:28.505Z,19.50
2018-02-15T12:35:57.387Z,19.53
2018-02-15T12:38:25.648Z,19.07
2018-02-15T12:40:53.208Z,19.87
2018-02-15T12:43:20.633Z,19.20
2018-02-15T12:45:48.256Z,18.50
2018-02-15T12:48:15.693Z,19.80
2018-02-15T12:50:43.929Z,19.50
2018-02-15T12:53:11.426Z,18.20
2018-02-15T12:55:39.776Z,18.47
2018-02-15T12:58:07.421Z,18.23
2018-02-15T13:00:35.224Z,18.33
2018-02-15T13:03:02.756Z,17.77
2018-02-15T13:05:30.246Z,17.73
2018-02-15T13:07:58.531Z,18.07
2018-02-15T13:10:26.097Z,17.40
2018-02-15T13:13:05.588Z,17.50
2018-02-15T13:15:44.861Z,19.53
2018-02-15T13:18:12.392Z,18.43
2018-02-15T13:20:40.696Z,17.63
2018-02-15T13:23:08.228Z,17.53
2018-02-15T13:25:36.494Z,17.90
2018-02-15T13:28:15.926Z,17.90
2018-02-15T13:30:43.478Z,19.00
2018-02-15T13:33:11.000Z,20.40
2018-02-15T13:35:38.495Z,19.20
2018-02-15T13:38:06.158Z,19.97
2018-02-15T13:40:33.848Z,19.00
2018-02-15T13:43:02.106Z,18.50
2018-02-15T13:45:29.586Z,19.47
2018-02-15T13:47:57.832Z,18.30
2018-02-15T13:50:25.312Z,18.80
2018-02-15T13:52:53.653Z,17.13
2018-02-15T13:55:21.174Z,18.40
2018-02-15T13:57:48.680Z,17.83
2018-02-15T14:00:17.709Z,18.17
2018-02-15T14:02:45.998Z,18.10
2018-02-15T14:05:13.552Z,17.43
2018-02-15T14:07:41.216Z,18.23
2018-02-15T14:10:08.736Z,16.80
2018-02-15T14:12:36.458Z,17.90
2018-02-15T14:15:04.135Z,16.90
2018-02-15T14:17:31.652Z,17.20
2018-02-15T14:19:59.165Z,17.40
2018-02-15T14:22:27.485Z,17.97
2018-02-15T14:24:54.985Z,17.47
2018-02-15T14:27:22.489Z,18.17
2018-02-15T14:29:50.810Z,18.47
2018-02-15T14:32:18.351Z,17.50
2018-02-15T14:34:45.826Z,18.63
2018-02-15T14:37:13.440Z,18.30
2018-02-15T14:39:41.744Z,16.80
2018-02-15T14:42:09.303Z,18.13
2018-02-15T14:44:37.005Z,17.70
2018-02-15T14:47:05.283Z,18.57
2018-02-15T14:49:33.565Z,16.50
2018-02-15T14:52:01.154Z,17.53
2018-02-15T14:54:28.674Z,17.90
2018-02-15T14:56:56.145Z,14.77
2018-02-15T14:59:23.627Z,17.60
2018-02-15T15:01:51.860Z,16.57
2018-02-15T15:04:19.365Z,16.30
2018-02-15T15:06:47.647Z,17.63
2018-02-15T15:09:15.924Z,16.60
2018-02-15T15:11:43.456Z,16.57
2018-02-15T15:14:11.249Z,15.50
2018-02-15T15:16:38.795Z,15.90
2018-02-15T15:19:07.451Z,15.10
2018-02-15T15:21:34.962Z,15.07
2018-02-15T15:24:02.474Z,21.93
2018-02-15T15:26:29.982Z,16.13
2018-02-15T15:28:57.497Z,13.90
2018-02-15T15:31:25.059Z,15.10
2018-02-15T15:33:52.704Z,13.67
2018-02-15T15:36:20.336Z,15.10
2018-02-15T15:38:47.887Z,16.17
2018-02-15T15:41:15.390Z,14.33
2018-02-15T15:43:42.906Z,13.80
2018-02-15T15:46:10.533Z,13.87
2018-02-15T15:48:38.103Z,19.50
2018-02-15T15:51:05.619Z,14.17
2018-02-15T15:53:33.097Z,14.27
2018-02-15T15:56:01.345Z,15.73
2018-02-15T15:58:28.829Z,14.10
2018-02-15T16:00:57.205Z,13.30
2018-02-15T16:03:25.673Z,14.70
2018-02-15T16:05:53.352Z,13.57
2018-02-15T16:08:21.626Z,13.53
2018-02-15T16:10:49.113Z,13.17
2018-02-15T16:13:16.835Z,14.30
2018-02-15T16:15:45.879Z,13.33
2018-02-15T16:18:13.379Z,14.30
2018-02-15T16:20:40.868Z,12.53
2018-02-15T16:23:09.126Z,13.40
2018-02-15T16:25:37.394Z,13.57
2018-02-15T16:28:04.877Z,14.27
2018-02-15T16:30:32.369Z,14.03
2018-02-15T16:32:59.844Z,13.23
2018-02-15T16:35:27.469Z,12.87
2018-02-15T16:37:55.114Z,13.07
2018-02-15T16:40:23.345Z,12.77
2018-02-15T16:42:50.833Z,13.27
2018-02-15T16:45:19.186Z,12.90
2018-02-15T16:47:46.713Z,12.80
2018-02-15T16:50:14.490Z,12.30
2018-02-15T16:52:41.988Z,14.20
2018-02-15T16:55:09.513Z,14.37
2018-02-15T16:57:37.020Z,14.07
2018-02-15T17:00:04.559Z,13.50
2018-02-15T17:02:32.057Z,12.80
2018-02-15T17:04:59.571Z,13.20
2018-02-15T17:07:27.082Z,12.10
2018-02-15T17:09:55.604Z,12.33
2018-02-15T17:12:23.855Z,13.47
2018-02-15T17:14:51.357Z,12.80
2018-02-15T17:17:19.638Z,13.57
2018-02-15T17:19:47.908Z,15.23
2018-02-15T17:22:16.425Z,13.87
2018-02-15T17:24:43.934Z,14.43
2018-02-15T17:27:11.594Z,13.63
2018-02-15T17:29:39.171Z,13.17
2018-02-15T17:32:07.416Z,13.87
2018-02-15T17:34:35.740Z,14.53
2018-02-15T17:37:03.249Z,12.93
2018-02-15T17:39:30.730Z,13.40
2018-02-15T17:41:58.213Z,12.47
2018-02-15T17:44:25.800Z,14.03
2018-02-15T17:46:53.403Z,14.30
2018-02-15T17:49:20.966Z,13.17
2018-02-15T17:51:49.394Z,14.40
2018-02-15T17:54:16.904Z,14.37
2018-02-15T17:56:45.169Z,13.70
2018-02-15T17:59:12.716Z,14.37
2018-02-15T18:01:40.262Z,14.43
2018-02-15T18:04:07.756Z,13.33
2018-02-15T18:06:36.088Z,13.53
2018-02-15T18:09:03.671Z,14.77
2018-02-15T18:11:32.015Z,15.70
2018-02-15T18:13:59.503Z,16.00
2018-02-15T18:16:27.034Z,15.07
2018-02-15T18:18:54.568Z,15.57
2018-02-15T18:21:22.044Z,16.10
2018-02-15T18:23:49.553Z,14.80
2018-02-15T18:26:17.889Z,14.97
2018-02-15T18:28:45.607Z,15.67
2018-02-15T18:31:13.346Z,14.70
2018-02-15T18:33:41.070Z,14.50
2018-02-15T18:36:08.676Z,15.53
2018-02-15T18:38:36.672Z,14.93
2018-02-15T18:41:04.251Z,15.37
2018-02-15T18:43:32.035Z,17.60
2018-02-15T18:45:59.600Z,14.70
2018-02-15T18:48:27.405Z,14.53
2018-02-15T18:50:54.966Z,13.43
2018-02-15T18:53:22.702Z,14.33
2018-02-15T18:55:50.239Z,13.23
2018-02-15T18:58:17.757Z,13.40
2018-02-15T19:00:45.270Z,13.83
2018-02-15T19:03:12.833Z,14.17
2018-02-15T19:05:40.400Z,13.37
2018-02-15T19:08:07.932Z,11.30
2018-02-15T19:10:35.501Z,12.03
2018-02-15T19:13:03.005Z,12.13
2018-02-15T19:15:31.016Z,11.33
2018-02-15T19:17:58.616Z,11.30
2018-02-15T19:20:26.134Z,11.30
2018-02-15T19:22:53.606Z,11.67
2018-02-15T19:25:21.076Z,12.10
2018-02-15T19:27:48.540Z,12.20
2018-02-15T19:30:16.018Z,11.90
2018-02-15T19:32:44.256Z,11.30
2018-02-15T19:35:11.754Z,15.80
2018-02-15T19:37:39.996Z,17.30
2018-02-15T19:40:07.515Z,23.47
2018-02-15T19:42:35.019Z,19.67
2018-02-15T19:45:04.024Z,15.93
2018-02-15T19:47:32.279Z,17.90
2018-02-15T19:49:59.773Z,18.80
2018-02-15T19:52:27.239Z,18.80
2018-02-15T19:54:54.742Z,17.83
2018-02-15T19:57:22.228Z,15.80
2018-02-15T19:59:49.740Z,15.20
2018-02-15T20:02:17.693Z,14.20
2018-02-15T20:04:45.277Z,14.17
2018-02-15T20:07:12.826Z,13.73
2018-02-15T20:09:40.376Z,11.83
2018-02-15T20:12:07.977Z,11.73
2018-02-15T20:14:35.556Z,12.20
2018-02-15T20:17:04.468Z,12.13
2018-02-15T20:19:31.950Z,12.13
2018-02-15T20:21:59.450Z,11.97
2018-02-15T20:24:27.687Z,11.27
2018-02-15T20:27:00.956Z,10.63
2018-02-15T20:29:28.430Z,10.40
2018-02-15T20:31:55.902Z,10.27
2018-02-15T20:34:23.363Z,10.73
2018-02-15T20:36:50.856Z,9.97
2018-02-15T20:39:24.717Z,10.10
2018-02-15T20:41:52.193Z,9.30
2018-02-15T20:44:19.661Z,11.10
2018-02-15T20:46:47.166Z,9.40
2018-02-15T20:49:20.193Z,10.20
2018-02-15T20:51:53.514Z,11.47
2018-02-15T20:54:27.478Z,10.50
2018-02-15T20:56:55.640Z,10.10
2018-02-15T20:59:23.174Z,9.80
2018-02-15T21:01:50.652Z,11.00
2018-02-15T21:04:18.172Z,11.27
2018-02-15T21:06:46.417Z,11.67
2018-02-15T21:09:13.975Z,12.10
2018-02-15T21:11:41.656Z,12.23
2018-02-15T21:14:09.114Z,12.93
2018-02-15T21:16:36.607Z,13.47
2018-02-15T21:19:04.086Z,12.93
2018-02-15T21:21:31.569Z,14.00
2018-02-15T21:23:59.176Z,14.07
2018-02-15T21:26:26.765Z,14.07
2018-02-15T21:28:54.278Z,13.27
2018-02-15T21:31:22.578Z,12.30
2018-02-15T21:33:50.058Z,12.63
2018-02-15T21:36:17.539Z,11.77
2018-02-15T21:38:45.014Z,9.40
2018-02-15T21:41:12.623Z,8.13
2018-02-15T21:43:40.225Z,7.10
2018-02-15T21:46:07.761Z,6.70
2018-02-15T21:48:35.295Z,6.23
2018-02-15T21:51:02.754Z,7.57
2018-02-15T21:53:30.238Z,7.47
2018-02-15T21:55:57.718Z,7.30
2018-02-15T21:58:26.714Z,7.27
2018-02-15T22:00:55.100Z,6.80
2018-02-15T22:03:23.366Z,6.33
2018-02-15T22:05:50.842Z,7.30
2018-02-15T22:08:19.517Z,8.37
2018-02-15T22:10:47.828Z,7.70
2018-02-15T22:13:15.344Z,7.23
2018-02-15T22:15:42.826Z,7.63
2018-02-15T22:18:11.081Z,10.60
2018-02-15T22:20:39.333Z,8.97
2018-02-15T22:23:06.813Z,10.17
2018-02-15T22:25:34.291Z,12.27
2018-02-15T22:28:02.606Z,13.07
2018-02-15T22:30:30.062Z,13.60
2018-02-15T22:32:57.566Z,12.40
2018-02-15T22:35:25.809Z,10.43
2018-02-15T22:37:53.289Z,10.63
2018-02-15T22:40:20.776Z,8.10
2018-02-15T22:42:48.232Z,8.30
2018-02-15T22:45:15.724Z,8.43
2018-02-15T22:47:43.185Z,8.63
2018-02-15T22:50:10.652Z,9.20
2018-02-15T22:52:38.132Z,9.47
2018-02-15T22:55:05.613Z,9.30
2018-02-15T22:57:33.837Z,9.57
2018-02-15T23:00:01.433Z,11.70
2018-02-15T23:02:29.669Z,7.67
2018-02-15T23:04:57.141Z,8.13
2018-02-15T23:07:24.619Z,7.90
2018-02-15T23:09:52.863Z,8.17
2018-02-15T23:12:20.331Z,8.40
2018-02-15T23:14:47.853Z,7.57
2018-02-15T23:17:15.497Z,8.50
2018-02-15T23:19:43.016Z,8.60
2018-02-15T23:22:10.678Z,6.77
2018-02-15T23:24:38.212Z,7.97
2018-02-15T23:27:05.710Z,7.97
2018-02-15T23:29:33.946Z,7.70
2018-02-15T23:32:01.417Z,8.33
2018-02-15T23:34:29.703Z,8.00
2018-02-15T23:36:57.172Z,7.93
2018-02-15T23:39:25.402Z,8.27
2018-02-15T23:41:52.953Z,9.00
2018-02-15T23:44:20.519Z,7.43
2018-02-15T23:46:47.996Z,9.03
2018-02-15T23:49:15.470Z,9.90
2018-02-15T23:51:42.953Z,9.77
2018-02-15T23:54:11.226Z,9.27
2018-02-15T23:56:39.549Z,7.60
2018-02-15T23:59:07.036Z,9.50
